Bouzas — EAPC — position and weather

sailwx.info

Track history (hours):
 
Tides and Currents Weather Stations Pressure Air Temp Water Temp Dewpoint Dewpoint Depression Visibility Wind Speed Wind Dir Waves Ship Positions

Bouzas

Last reported at 2016-Jun-29 14:26 UTC. Time now 2016-Jun-29 14:46 UTC.
Position N 47°17' W 002°10'.

Length 142 m; draft 5.9 m.

Type: Cargo ship. MMSI: 224029000.

Date/timePositionNaut miles runAvg speedWind from/ knotsBaromVisibWave heightAir tempDewpointWater temp
2016-Jun-29 14:26N 47°17' W 002°10'0 0.0
2016-Jun-29 13:32N 47°17' W 002°10'0 0.0
2016-Jun-29 12:32N 47°17' W 002°10'0 0.0
2016-Jun-29 11:29N 47°17' W 002°10'0 0.0
2016-Jun-29 10:32N 47°17' W 002°10'0 0.0
2016-Jun-29 09:31N 47°17' W 002°10'0 0.0
2016-Jun-29 08:31N 47°17' W 002°10'0 0.0
2016-Jun-29 07:31N 47°17' W 002°10'0 0.0
2016-Jun-29 06:31N 47°17' W 002°10'0 0.0
2016-Jun-29 05:31N 47°17' W 002°10'0 0.0
2016-Jun-29 04:31N 47°17' W 002°10'0 0.0
2016-Jun-29 03:31N 47°17' W 002°10'0 0.0
2016-Jun-29 02:31N 47°17' W 002°10'0 0.0
2016-Jun-29 01:31N 47°17' W 002°10'0 0.0
2016-Jun-29 00:31N 47°17' W 002°10'0 0.0
2016-Jun-28 23:31N 47°17' W 002°10'0 0.0
2016-Jun-28 22:31N 47°17' W 002°10'0 0.0
2016-Jun-28 21:31N 47°17' W 002°10'0 0.0
2016-Jun-28 20:33N 47°17' W 002°10'6 6.3
2016-Jun-28 19:34N 47°13' W 002°17'1515.1
2016-Jun-28 18:33N 47°02' W 002°32'2018.5
2016-Jun-28 17:30N 46°51' W 002°56'196539.4
2016-Jun-26 15:34N 31°39' E 034°32'0 0.0
2016-Jun-26 14:31N 31°39' E 034°32'0 0.0
2016-Jun-26 13:12N 31°39' E 034°32'0 0.0
2016-Jun-25 22:33N 31°39' E 034°32'1972275.9
2016-Jun-25 15:24N 46°48' W 003°07'1417.0
2016-Jun-25 14:33N 46°56' W 002°50'19637246.4
2016-Jun-25 14:17N 31°39' E 034°32'0 0.0
2016-Jun-25 13:33N 31°39' E 034°32'1950877625.7
2016-Jun-25 13:33N 47°04' W 002°28'1615.7
2016-Jun-25 12:33N 47°15' W 002°13'19438417.7
2016-Jun-25 12:19N 31°39' E 034°32'0 0.0
2016-Jun-25 11:34N 31°39' E 034°32'1942268866.0
2016-Jun-25 11:33N 47°17' W 002°10'19421950.5
2016-Jun-25 10:33N 31°39' E 034°32'194235128.3
2016-Jun-25 10:30N 47°17' W 002°10'0 0.0
2016-Jun-25 09:27N 47°17' W 002°10'0 0.0
2016-Jun-25 08:30N 47°17' W 002°10'0 0.0
2016-Jun-25 07:33N 47°17' W 002°10'0 0.0
2016-Jun-25 06:33N 47°17' W 002°10'0 0.0
2016-Jun-25 05:33N 47°17' W 002°10'0 0.0
2016-Jun-25 04:33N 47°17' W 002°10'0 0.0
2016-Jun-25 03:33N 47°17' W 002°10'0 0.0
2016-Jun-25 02:30N 47°17' W 002°10'0 0.0
2016-Jun-25 01:33N 47°17' W 002°10'0 0.0
2016-Jun-25 00:30N 47°17' W 002°10'0 0.0
2016-Jun-24 23:33N 47°17' W 002°10'0 0.0
2016-Jun-24 22:33N 47°17' W 002°10'0 0.0
2016-Jun-24 21:33N 47°17' W 002°10'0 0.0
2016-Jun-24 20:33N 47°17' W 002°10'0 0.0
2016-Jun-24 19:33N 47°17' W 002°10'19421900.1
2016-Jun-24 18:31N 31°39' E 034°32'194267869.1
2016-Jun-24 18:29N 47°17' W 002°10'19422081.8
2016-Jun-24 17:34N 31°39' E 034°32'0 0.0
2016-Jun-24 15:34N 31°39' E 034°32'0 0.0
2016-Jun-24 14:33N 31°39' E 034°32'1942131896.7
2016-Jun-24 14:32N 47°17' W 002°10'19421970.8
2016-Jun-24 13:33N 31°39' E 034°32'1942129454.0
2016-Jun-24 13:32N 47°17' W 002°10'19421959.2
2016-Jun-24 12:33N 31°39' E 034°32'1942199729.2
2016-Jun-24 12:32N 47°17' W 002°10'19421972.5
2016-Jun-24 11:33N 31°39' E 034°32'194229372.0
2016-Jun-24 11:29N 47°17' W 002°10'0 0.0
2016-Jun-24 10:32N 47°17' W 002°10'0 0.0
2016-Jun-24 09:32N 47°17' W 002°10'0 0.0
2016-Jun-24 08:32N 47°17' W 002°10'0 0.5
2016-Jun-24 07:33N 47°17' W 002°10'3411.3
2016-Jun-24 04:32N 46°52' W 002°45'1616.3
2016-Jun-24 03:33N 46°39' W 002°58'1716.7
2016-Jun-24 02:33N 46°25' W 003°11'1969281.3
2016-Jun-23 19:33N 31°39' E 034°32'0 0.0
2016-Jun-23 18:33N 31°39' E 034°32'0 0.0
2016-Jun-23 17:29N 31°39' E 034°32'0 0.0
2016-Jun-23 16:33N 31°39' E 034°32'20322044.9
2016-Jun-23 15:33N 43°50' W 005°26'2032332575.9
2016-Jun-23 15:33N 31°39' E 034°32'0 0.0
2016-Jun-23 14:33N 31°39' E 034°32'2039193146.3
2016-Jun-23 14:32N 43°35' W 005°38'20392038.2
2016-Jun-23 13:32N 31°39' E 034°32'204180748.7
2016-Jun-23 13:31N 43°34' W 005°41'20412142.3
2016-Jun-23 12:34N 31°39' E 034°32'204113812.3
2016-Jun-23 12:25N 43°34' W 005°41'20412263.1
2016-Jun-23 11:31N 31°39' E 034°32'0 0.0
2016-Jun-23 10:33N 31°39' E 034°32'0 0.0
2016-Jun-23 09:33N 31°39' E 034°32'20411518.2
2016-Jun-23 08:13N 43°34' W 005°41'0 0.0
2016-Jun-23 07:30N 43°34' W 005°41'6713.5
2016-Jun-23 02:33N 43°50' W 007°11'1817.7
2016-Jun-23 01:33N 43°52' W 007°35'1717.1
2016-Jun-23 00:33N 43°50' W 007°59'21451070.7
2016-Jun-22 22:33N 31°39' E 034°32'0 0.0
2016-Jun-22 21:34N 31°39' E 034°32'0 0.0
2016-Jun-22 20:29N 31°39' E 034°32'0 0.0
2016-Jun-22 19:10N 31°39' E 034°32'0 0.0
2016-Jun-22 17:15N 31°39' E 034°32'0 0.0
2016-Jun-22 16:33N 31°39' E 034°32'0 0.0
2016-Jun-22 15:33N 31°39' E 034°32'199752.5
2016-Jun-21 01:32N 46°27' W 003°51'1616.1
2016-Jun-21 00:30N 46°36' W 003°31'1516.1
2016-Jun-20 23:33N 46°45' W 003°13'1716.6
2016-Jun-20 22:33N 46°55' W 002°53'1717.6
2016-Jun-20 21:33N 47°03' W 002°31'1616.4
2016-Jun-20 20:33N 47°15' W 002°14'4 3.5
2016-Jun-20 19:32N 47°17' W 002°10'0 0.0
2016-Jun-20 18:32N 47°17' W 002°10'0 0.0
2016-Jun-20 17:32N 47°17' W 002°10'0 0.0
2016-Jun-20 16:32N 47°17' W 002°10'0 0.0
2016-Jun-20 15:20N 47°17' W 002°10'0 0.0
2016-Jun-20 14:28N 47°17' W 002°10'0 0.0
2016-Jun-20 13:28N 47°17' W 002°10'0 0.0
2016-Jun-20 12:31N 47°17' W 002°10'0 0.0
2016-Jun-20 11:31N 47°17' W 002°10'0 0.0
2016-Jun-20 10:31N 47°17' W 002°10'0 0.0
2016-Jun-20 09:28N 47°17' W 002°10'0 0.0
2016-Jun-20 08:31N 47°17' W 002°10'0 0.0
2016-Jun-20 07:31N 47°17' W 002°10'0 0.0
2016-Jun-20 06:31N 47°17' W 002°10'0 0.0
2016-Jun-20 05:31N 47°17' W 002°10'0 0.0
2016-Jun-20 04:31N 47°17' W 002°10'0 0.0
2016-Jun-20 03:31N 47°17' W 002°10'0 0.0
2016-Jun-20 02:31N 47°17' W 002°10'0 0.0
2016-Jun-20 01:31N 47°17' W 002°10'0 0.0
2016-Jun-20 00:31N 47°17' W 002°10'0 0.0
2016-Jun-19 23:31N 47°17' W 002°10'0 0.0
2016-Jun-19 22:28N 47°17' W 002°10'0 0.0
2016-Jun-19 21:28N 47°17' W 002°10'0 0.0
2016-Jun-19 20:31N 47°17' W 002°10'0 0.0
2016-Jun-19 19:31N 47°17' W 002°10'0 0.0
2016-Jun-19 18:31N 47°17' W 002°10'0 0.0
2016-Jun-19 17:31N 47°17' W 002°10'0 0.0
2016-Jun-19 16:33N 47°17' W 002°10'1312.5
2016-Jun-19 15:33N 47°07' W 002°21'1312.8
2016-Jun-19 14:33N 47°00' W 002°37'  
Track history (hours):
 
Tides and Currents Weather Stations Pressure Air Temp Water Temp Dewpoint Dewpoint Depression Visibility Wind Speed Wind Dir Waves Ship Positions

Bouzas

Last reported at 2016-Jun-29 14:26 UTC. Time now 2016-Jun-29 14:46 UTC.
Position N 47°17' W 002°10'.

Length 142 m; draft 5.9 m.

Type: Cargo ship. MMSI: 224029000.

Date/timePositionNaut miles runAvg speedWind from/ knotsBaromVisibWave heightAir tempDewpointWater temp
2016-Jun-29 14:26N 47°17' W 002°10'0 0.0
2016-Jun-29 13:32N 47°17' W 002°10'0 0.0
2016-Jun-29 12:32N 47°17' W 002°10'0 0.0
2016-Jun-29 11:29N 47°17' W 002°10'0 0.0
2016-Jun-29 10:32N 47°17' W 002°10'0 0.0
2016-Jun-29 09:31N 47°17' W 002°10'0 0.0
2016-Jun-29 08:31N 47°17' W 002°10'0 0.0
2016-Jun-29 07:31N 47°17' W 002°10'0 0.0
2016-Jun-29 06:31N 47°17' W 002°10'0 0.0
2016-Jun-29 05:31N 47°17' W 002°10'0 0.0
2016-Jun-29 04:31N 47°17' W 002°10'0 0.0
2016-Jun-29 03:31N 47°17' W 002°10'0 0.0
2016-Jun-29 02:31N 47°17' W 002°10'0 0.0
2016-Jun-29 01:31N 47°17' W 002°10'0 0.0
2016-Jun-29 00:31N 47°17' W 002°10'0 0.0
2016-Jun-28 23:31N 47°17' W 002°10'0 0.0
2016-Jun-28 22:31N 47°17' W 002°10'0 0.0
2016-Jun-28 21:31N 47°17' W 002°10'0 0.0
2016-Jun-28 20:33N 47°17' W 002°10'6 6.3
2016-Jun-28 19:34N 47°13' W 002°17'1515.1
2016-Jun-28 18:33N 47°02' W 002°32'2018.5
2016-Jun-28 17:30N 46°51' W 002°56'196539.4
2016-Jun-26 15:34N 31°39' E 034°32'0 0.0
2016-Jun-26 14:31N 31°39' E 034°32'0 0.0
2016-Jun-26 13:12N 31°39' E 034°32'0 0.0
2016-Jun-25 22:33N 31°39' E 034°32'1972275.9
2016-Jun-25 15:24N 46°48' W 003°07'1417.0
2016-Jun-25 14:33N 46°56' W 002°50'19637246.4
2016-Jun-25 14:17N 31°39' E 034°32'0 0.0
2016-Jun-25 13:33N 31°39' E 034°32'1950877625.7
2016-Jun-25 13:33N 47°04' W 002°28'1615.7
2016-Jun-25 12:33N 47°15' W 002°13'19438417.7
2016-Jun-25 12:19N 31°39' E 034°32'0 0.0
2016-Jun-25 11:34N 31°39' E 034°32'1942268866.0
2016-Jun-25 11:33N 47°17' W 002°10'19421950.5
2016-Jun-25 10:33N 31°39' E 034°32'194235128.3
2016-Jun-25 10:30N 47°17' W 002°10'0 0.0
2016-Jun-25 09:27N 47°17' W 002°10'0 0.0
2016-Jun-25 08:30N 47°17' W 002°10'0 0.0
2016-Jun-25 07:33N 47°17' W 002°10'0 0.0
2016-Jun-25 06:33N 47°17' W 002°10'0 0.0
2016-Jun-25 05:33N 47°17' W 002°10'0 0.0
2016-Jun-25 04:33N 47°17' W 002°10'0 0.0
2016-Jun-25 03:33N 47°17' W 002°10'0 0.0
2016-Jun-25 02:30N 47°17' W 002°10'0 0.0
2016-Jun-25 01:33N 47°17' W 002°10'0 0.0
2016-Jun-25 00:30N 47°17' W 002°10'0 0.0
2016-Jun-24 23:33N 47°17' W 002°10'0 0.0
2016-Jun-24 22:33N 47°17' W 002°10'0 0.0
2016-Jun-24 21:33N 47°17' W 002°10'0 0.0
2016-Jun-24 20:33N 47°17' W 002°10'0 0.0
2016-Jun-24 19:33N 47°17' W 002°10'19421900.1
2016-Jun-24 18:31N 31°39' E 034°32'194267869.1
2016-Jun-24 18:29N 47°17' W 002°10'19422081.8
2016-Jun-24 17:34N 31°39' E 034°32'0 0.0
2016-Jun-24 15:34N 31°39' E 034°32'0 0.0
2016-Jun-24 14:33N 31°39' E 034°32'1942131896.7
2016-Jun-24 14:32N 47°17' W 002°10'19421970.8
2016-Jun-24 13:33N 31°39' E 034°32'1942129454.0
2016-Jun-24 13:32N 47°17' W 002°10'19421959.2
2016-Jun-24 12:33N 31°39' E 034°32'1942199729.2
2016-Jun-24 12:32N 47°17' W 002°10'19421972.5
2016-Jun-24 11:33N 31°39' E 034°32'194229372.0
2016-Jun-24 11:29N 47°17' W 002°10'0 0.0
2016-Jun-24 10:32N 47°17' W 002°10'0 0.0
2016-Jun-24 09:32N 47°17' W 002°10'0 0.0
2016-Jun-24 08:32N 47°17' W 002°10'0 0.5
2016-Jun-24 07:33N 47°17' W 002°10'3411.3
2016-Jun-24 04:32N 46°52' W 002°45'1616.3
2016-Jun-24 03:33N 46°39' W 002°58'1716.7
2016-Jun-24 02:33N 46°25' W 003°11'1969281.3
2016-Jun-23 19:33N 31°39' E 034°32'0 0.0
2016-Jun-23 18:33N 31°39' E 034°32'0 0.0
2016-Jun-23 17:29N 31°39' E 034°32'0 0.0
2016-Jun-23 16:33N 31°39' E 034°32'20322044.9
2016-Jun-23 15:33N 43°50' W 005°26'2032332575.9
2016-Jun-23 15:33N 31°39' E 034°32'0 0.0
2016-Jun-23 14:33N 31°39' E 034°32'2039193146.3
2016-Jun-23 14:32N 43°35' W 005°38'20392038.2
2016-Jun-23 13:32N 31°39' E 034°32'204180748.7
2016-Jun-23 13:31N 43°34' W 005°41'20412142.3
2016-Jun-23 12:34N 31°39' E 034°32'204113812.3
2016-Jun-23 12:25N 43°34' W 005°41'20412263.1
2016-Jun-23 11:31N 31°39' E 034°32'0 0.0
2016-Jun-23 10:33N 31°39' E 034°32'0 0.0
2016-Jun-23 09:33N 31°39' E 034°32'20411518.2
2016-Jun-23 08:13N 43°34' W 005°41'0 0.0
2016-Jun-23 07:30N 43°34' W 005°41'6713.5
2016-Jun-23 02:33N 43°50' W 007°11'1817.7
2016-Jun-23 01:33N 43°52' W 007°35'1717.1
2016-Jun-23 00:33N 43°50' W 007°59'21451070.7
2016-Jun-22 22:33N 31°39' E 034°32'0 0.0
2016-Jun-22 21:34N 31°39' E 034°32'0 0.0
2016-Jun-22 20:29N 31°39' E 034°32'0 0.0
2016-Jun-22 19:10N 31°39' E 034°32'0 0.0
2016-Jun-22 17:15N 31°39' E 034°32'0 0.0
2016-Jun-22 16:33N 31°39' E 034°32'0 0.0
2016-Jun-22 15:33N 31°39' E 034°32'199752.5
2016-Jun-21 01:32N 46°27' W 003°51'1616.1
2016-Jun-21 00:30N 46°36' W 003°31'1516.1
2016-Jun-20 23:33N 46°45' W 003°13'1716.6
2016-Jun-20 22:33N 46°55' W 002°53'1717.6
2016-Jun-20 21:33N 47°03' W 002°31'1616.4
2016-Jun-20 20:33N 47°15' W 002°14'4 3.5
2016-Jun-20 19:32N 47°17' W 002°10'0 0.0
2016-Jun-20 18:32N 47°17' W 002°10'0 0.0
2016-Jun-20 17:32N 47°17' W 002°10'0 0.0
2016-Jun-20 16:32N 47°17' W 002°10'0 0.0
2016-Jun-20 15:20N 47°17' W 002°10'0 0.0
2016-Jun-20 14:28N 47°17' W 002°10'0 0.0
2016-Jun-20 13:28N 47°17' W 002°10'0 0.0
2016-Jun-20 12:31N 47°17' W 002°10'0 0.0
2016-Jun-20 11:31N 47°17' W 002°10'0 0.0
2016-Jun-20 10:31N 47°17' W 002°10'0 0.0
2016-Jun-20 09:28N 47°17' W 002°10'0 0.0
2016-Jun-20 08:31N 47°17' W 002°10'0 0.0
2016-Jun-20 07:31N 47°17' W 002°10'0 0.0
2016-Jun-20 06:31N 47°17' W 002°10'0 0.0
2016-Jun-20 05:31N 47°17' W 002°10'0 0.0
2016-Jun-20 04:31N 47°17' W 002°10'0 0.0
2016-Jun-20 03:31N 47°17' W 002°10'0 0.0
2016-Jun-20 02:31N 47°17' W 002°10'0 0.0
2016-Jun-20 01:31N 47°17' W 002°10'0 0.0
2016-Jun-20 00:31N 47°17' W 002°10'0 0.0
2016-Jun-19 23:31N 47°17' W 002°10'0 0.0
2016-Jun-19 22:28N 47°17' W 002°10'0 0.0
2016-Jun-19 21:28N 47°17' W 002°10'0 0.0
2016-Jun-19 20:31N 47°17' W 002°10'0 0.0
2016-Jun-19 19:31N 47°17' W 002°10'0 0.0
2016-Jun-19 18:31N 47°17' W 002°10'0 0.0
2016-Jun-19 17:31N 47°17' W 002°10'0 0.0
2016-Jun-19 16:33N 47°17' W 002°10'1312.5
2016-Jun-19 15:33N 47°07' W 002°21'1312.8
2016-Jun-19 14:33N 47°00' W 002°37'  

Dump ship's entire track history